createdAt,value
2019-02-02T00:01:02.130Z,28.10
2019-02-02T00:03:29.973Z,29.47
2019-02-02T00:05:58.236Z,27.20
2019-02-02T00:08:25.780Z,28.13
2019-02-02T00:10:53.358Z,30.30
2019-02-02T00:13:20.954Z,29.67
2019-02-02T00:15:49.764Z,28.90
2019-02-02T00:18:17.620Z,28.67
2019-02-02T00:20:45.078Z,28.03
2019-02-02T00:23:13.193Z,27.07
2019-02-02T00:25:41.236Z,28.53
2019-02-02T00:28:14.770Z,28.27
2019-02-02T00:30:42.566Z,27.23
2019-02-02T00:33:10.733Z,29.90
2019-02-02T00:35:38.682Z,31.13
2019-02-02T00:38:06.308Z,29.53
2019-02-02T00:40:33.773Z,30.20
2019-02-02T00:43:01.560Z,29.63
2019-02-02T00:45:29.029Z,29.63
2019-02-02T00:47:56.551Z,28.87
2019-02-02T00:50:24.024Z,29.83
2019-02-02T00:52:52.233Z,28.67
2019-02-02T00:55:20.365Z,28.60
2019-02-02T00:57:53.620Z,29.73
2019-02-02T01:00:17.147Z,28.97
2019-02-02T01:02:44.762Z,29.60
2019-02-02T01:05:13.835Z,27.50
2019-02-02T01:07:41.593Z,30.53
2019-02-02T01:10:23.795Z,29.20
2019-02-02T01:12:51.804Z,30.27
2019-02-02T01:15:19.723Z,29.47
2019-02-02T01:17:47.234Z,30.10
2019-02-02T01:20:15.399Z,27.93
2019-02-02T01:22:43.095Z,28.67
2019-02-02T01:25:12.279Z,29.23
2019-02-02T01:27:40.136Z,29.43
2019-02-02T01:30:09.748Z,29.27
2019-02-02T01:32:37.506Z,29.73
2019-02-02T01:35:07.471Z,29.30
2019-02-02T01:37:34.998Z,29.50
2019-02-02T01:40:02.825Z,28.70
2019-02-02T01:42:30.355Z,29.67
2019-02-02T01:44:57.837Z,30.87
2019-02-02T01:47:25.436Z,29.27
2019-02-02T01:49:52.951Z,29.93
2019-02-02T01:52:20.460Z,33.23
2019-02-02T01:54:47.975Z,31.17
2019-02-02T01:57:15.725Z,30.63
2019-02-02T01:59:43.574Z,32.77
2019-02-02T02:02:11.102Z,31.10
2019-02-02T02:04:38.654Z,32.57
2019-02-02T02:07:06.208Z,30.20
2019-02-02T02:09:33.712Z,31.10
2019-02-02T02:12:01.697Z,31.17
2019-02-02T02:14:29.888Z,31.03
2019-02-02T02:16:57.739Z,31.30
2019-02-02T02:19:26.600Z,30.40
2019-02-02T02:21:54.494Z,29.77
2019-02-02T02:24:30.652Z,33.03
2019-02-02T02:26:58.566Z,31.33
2019-02-02T02:29:28.347Z,30.07
2019-02-02T02:31:55.854Z,30.93
2019-02-02T02:34:30.153Z,31.23
2019-02-02T02:36:57.633Z,31.87
2019-02-02T02:39:25.148Z,30.63
2019-02-02T02:41:55.243Z,32.03
2019-02-02T02:44:22.709Z,32.40
2019-02-02T02:46:50.597Z,31.80
2019-02-02T02:49:18.070Z,30.77
2019-02-02T02:51:45.862Z,29.73
2019-02-02T02:54:13.335Z,31.57
2019-02-02T02:56:41.124Z,30.27
2019-02-02T02:59:08.619Z,29.73
2019-02-02T03:01:36.375Z,30.13
2019-02-02T03:04:04.440Z,30.57
2019-02-02T03:06:31.942Z,31.03
2019-02-02T03:08:59.739Z,30.27
2019-02-02T03:11:27.225Z,32.90
2019-02-02T03:13:56.717Z,31.67
2019-02-02T03:16:24.167Z,30.53
2019-02-02T03:18:51.657Z,31.87
2019-02-02T03:21:19.236Z,30.70
2019-02-02T03:23:47.248Z,31.43
2019-02-02T03:26:15.228Z,33.10
2019-02-02T03:28:53.104Z,32.47
2019-02-02T03:31:12.977Z,31.20
2019-02-02T03:33:40.808Z,31.23
2019-02-02T03:36:08.344Z,32.93
2019-02-02T03:38:36.177Z,30.13
2019-02-02T03:41:03.721Z,29.33
2019-02-02T03:43:31.180Z,30.77
2019-02-02T03:45:58.967Z,29.87
2019-02-02T03:48:26.423Z,30.90
2019-02-02T03:50:54.289Z,31.63
2019-02-02T03:53:21.810Z,31.60
2019-02-02T03:55:49.360Z,30.63
2019-02-02T03:58:17.137Z,30.13
2019-02-02T04:00:44.632Z,30.00
2019-02-02T04:03:12.322Z,31.87
2019-02-02T04:05:39.779Z,29.10
2019-02-02T04:08:07.249Z,30.57
2019-02-02T04:10:34.714Z,32.67
2019-02-02T04:13:02.585Z,33.20
2019-02-02T04:15:30.421Z,33.30
2019-02-02T04:17:58.224Z,33.20
2019-02-02T04:20:25.714Z,33.67
2019-02-02T04:22:53.390Z,32.87
2019-02-02T04:25:22.032Z,34.03
2019-02-02T04:27:49.930Z,33.23
2019-02-02T04:30:19.617Z,34.97
2019-02-02T04:32:47.180Z,34.90
2019-02-02T04:35:14.642Z,32.37
2019-02-02T04:37:42.198Z,31.37
2019-02-02T04:40:10.666Z,32.03
2019-02-02T04:42:38.211Z,33.43
2019-02-02T04:45:07.351Z,30.00
2019-02-02T04:47:35.108Z,32.00
2019-02-02T04:50:03.482Z,33.27
2019-02-02T04:52:30.991Z,32.50
2019-02-02T04:54:59.871Z,31.13
2019-02-02T04:57:27.417Z,32.17
2019-02-02T04:59:55.316Z,30.93
2019-02-02T05:02:23.527Z,30.13
2019-02-02T05:04:51.030Z,31.00
2019-02-02T05:07:18.780Z,30.83
2019-02-02T05:09:47.231Z,30.03
2019-02-02T05:12:15.757Z,32.73
2019-02-02T05:14:43.308Z,33.83
2019-02-02T05:17:11.185Z,31.63
2019-02-02T05:19:39.013Z,32.27
2019-02-02T05:22:06.496Z,33.00
2019-02-02T05:24:33.968Z,33.73
2019-02-02T05:27:01.451Z,33.00
2019-02-02T05:29:40.756Z,32.47
2019-02-02T05:32:01.032Z,30.20
2019-02-02T05:34:28.501Z,30.60
2019-02-02T05:36:56.876Z,32.10
2019-02-02T05:39:26.879Z,32.03
2019-02-02T05:41:54.354Z,31.47
2019-02-02T05:44:21.868Z,31.07
2019-02-02T05:46:49.404Z,31.67
2019-02-02T05:49:36.743Z,32.23
2019-02-02T05:52:04.304Z,32.20
2019-02-02T05:54:32.085Z,31.83
2019-02-02T05:56:59.915Z,32.40
2019-02-02T05:59:29.402Z,31.87
2019-02-02T06:01:56.948Z,32.87
2019-02-02T06:04:24.439Z,30.80
2019-02-02T06:06:51.972Z,31.20
2019-02-02T06:09:19.505Z,32.13
2019-02-02T06:11:46.968Z,31.97
2019-02-02T06:14:14.439Z,32.60
2019-02-02T06:16:41.922Z,32.70
2019-02-02T06:19:09.393Z,31.83
2019-02-02T06:21:37.237Z,33.27
2019-02-02T06:24:05.165Z,33.10
2019-02-02T06:26:33.075Z,33.27
2019-02-02T06:29:01.003Z,31.13
2019-02-02T06:31:28.513Z,32.03
2019-02-02T06:33:56.069Z,33.73
2019-02-02T06:36:23.562Z,31.83
2019-02-02T06:38:51.749Z,31.30
2019-02-02T06:41:20.259Z,32.17
2019-02-02T06:43:48.044Z,31.50
2019-02-02T06:46:15.925Z,33.97
2019-02-02T06:48:43.399Z,31.50
2019-02-02T06:51:10.973Z,33.00
2019-02-02T06:53:38.513Z,33.60
2019-02-02T06:56:06.238Z,32.33
2019-02-02T06:58:34.041Z,31.13
2019-02-02T07:01:01.936Z,30.83
2019-02-02T07:03:29.493Z,33.70
2019-02-02T07:05:57.016Z,34.57
2019-02-02T07:08:25.276Z,32.47
2019-02-02T07:10:53.127Z,32.87
2019-02-02T07:13:20.710Z,33.30
2019-02-02T07:15:48.176Z,32.33
2019-02-02T07:18:15.643Z,32.83
2019-02-02T07:20:43.377Z,34.70
2019-02-02T07:23:10.776Z,34.13
2019-02-02T07:25:38.218Z,33.13
2019-02-02T07:28:05.948Z,34.47
2019-02-02T07:30:33.667Z,34.67
2019-02-02T07:33:01.483Z,33.37
2019-02-02T07:35:29.654Z,33.90
2019-02-02T07:37:58.814Z,36.17
2019-02-02T07:40:26.853Z,32.90
2019-02-02T07:42:54.701Z,32.83
2019-02-02T07:45:25.024Z,35.30
2019-02-02T07:47:53.812Z,33.77
2019-02-02T07:50:21.281Z,34.93
2019-02-02T07:52:51.456Z,36.30
2019-02-02T07:55:19.401Z,35.87
2019-02-02T07:57:46.863Z,35.50
2019-02-02T08:00:20.994Z,36.20
2019-02-02T08:02:48.894Z,33.97
2019-02-02T08:05:16.927Z,37.20
2019-02-02T08:07:44.418Z,37.47
2019-02-02T08:10:12.469Z,35.00
2019-02-02T08:12:40.329Z,38.73
2019-02-02T08:15:10.607Z,37.33
2019-02-02T08:17:38.318Z,40.20
2019-02-02T08:20:07.827Z,40.60
2019-02-02T08:22:35.895Z,41.43
2019-02-02T08:25:04.366Z,41.67
2019-02-02T08:27:31.857Z,43.60
2019-02-02T08:30:00.440Z,40.90
2019-02-02T08:32:28.187Z,41.70
2019-02-02T08:34:55.621Z,40.07
2019-02-02T08:37:23.931Z,36.57
2019-02-02T08:39:51.767Z,38.20
2019-02-02T08:42:19.266Z,38.43
2019-02-02T08:44:46.734Z,41.30
2019-02-02T08:47:17.719Z,38.23
2019-02-02T08:49:45.826Z,37.53
2019-02-02T08:52:13.756Z,38.73
2019-02-02T08:54:41.387Z,34.90
2019-02-02T08:57:09.858Z,36.10
2019-02-02T08:59:38.164Z,36.27
2019-02-02T09:02:07.094Z,38.47
2019-02-02T09:04:34.869Z,36.87
2019-02-02T09:07:03.406Z,38.33
2019-02-02T09:09:31.275Z,36.70
2019-02-02T09:12:00.613Z,36.93
2019-02-02T09:14:28.217Z,38.63
2019-02-02T09:16:55.927Z,38.37
2019-02-02T09:19:23.654Z,37.53
2019-02-02T09:21:51.670Z,37.77
2019-02-02T09:24:19.181Z,36.97
2019-02-02T09:26:47.106Z,37.37
2019-02-02T09:29:15.195Z,39.67
2019-02-02T09:31:42.617Z,38.33
2019-02-02T09:34:10.418Z,38.00
2019-02-02T09:36:38.310Z,37.30
2019-02-02T09:39:07.343Z,35.27
2019-02-02T09:41:35.297Z,37.87
2019-02-02T09:44:03.154Z,36.20
2019-02-02T09:46:31.139Z,35.33
2019-02-02T09:48:58.644Z,35.77
2019-02-02T09:51:26.420Z,38.17
2019-02-02T09:53:53.898Z,38.57
2019-02-02T09:56:21.339Z,39.07
2019-02-02T09:58:49.231Z,36.33
2019-02-02T10:01:27.372Z,38.10
2019-02-02T10:03:46.751Z,36.03
2019-02-02T10:06:14.417Z,36.83
2019-02-02T10:08:42.593Z,36.07
2019-02-02T10:11:10.675Z,33.67
2019-02-02T10:13:38.510Z,35.27
2019-02-02T10:16:06.861Z,35.63
2019-02-02T10:18:40.715Z,33.03
2019-02-02T10:21:08.205Z,35.37
2019-02-02T10:23:36.288Z,34.30
2019-02-02T10:26:04.339Z,35.03
2019-02-02T10:28:32.818Z,35.07
2019-02-02T10:31:01.413Z,34.80
2019-02-02T10:36:04.826Z,30.93
2019-02-02T10:38:33.660Z,33.50
2019-02-02T10:41:01.363Z,32.60
2019-02-02T10:43:28.848Z,34.60
2019-02-02T10:45:56.939Z,32.90
2019-02-02T10:48:24.920Z,30.40
2019-02-02T10:50:52.658Z,31.43
2019-02-02T10:53:20.275Z,31.80
2019-02-02T10:55:47.742Z,34.40
2019-02-02T10:58:15.202Z,33.33
2019-02-02T11:00:42.807Z,33.23
2019-02-02T11:03:10.927Z,32.73
2019-02-02T11:05:39.114Z,34.13
2019-02-02T11:08:07.500Z,34.70
2019-02-02T11:10:36.732Z,30.00
2019-02-02T11:13:06.783Z,33.50
2019-02-02T11:15:35.185Z,34.57
2019-02-02T11:18:02.860Z,34.03
2019-02-02T11:20:31.778Z,31.73
2019-02-02T11:22:59.525Z,31.27
2019-02-02T11:25:27.358Z,33.97
2019-02-02T11:27:54.951Z,33.07
2019-02-02T11:30:23.050Z,32.13
2019-02-02T11:32:50.571Z,33.10
2019-02-02T11:35:18.216Z,33.03
2019-02-02T11:37:47.156Z,31.07
2019-02-02T11:40:34.475Z,32.60
2019-02-02T11:43:02.067Z,32.60
2019-02-02T11:45:29.714Z,33.13
2019-02-02T11:48:04.588Z,31.93
2019-02-02T11:50:32.371Z,29.90
2019-02-02T11:53:00.411Z,32.23
2019-02-02T11:55:28.004Z,32.03
2019-02-02T11:57:55.758Z,31.43
2019-02-02T12:00:25.944Z,30.30
2019-02-02T12:02:53.474Z,30.07
2019-02-02T12:05:21.080Z,28.97
2019-02-02T12:07:48.961Z,29.23
2019-02-02T12:10:17.734Z,30.17
2019-02-02T12:12:45.760Z,28.27
2019-02-02T12:15:15.523Z,28.97
2019-02-02T12:17:45.933Z,28.67
2019-02-02T12:20:17.231Z,29.10
2019-02-02T12:22:44.914Z,30.10
2019-02-02T12:25:13.081Z,31.00
2019-02-02T12:27:42.650Z,30.13
2019-02-02T12:30:13.655Z,29.50
2019-02-02T12:32:41.122Z,30.93
2019-02-02T12:35:10.950Z,29.73
2019-02-02T12:37:38.579Z,29.33
2019-02-02T12:40:07.720Z,29.70
2019-02-02T12:42:35.257Z,30.43
2019-02-02T12:45:05.522Z,31.17
2019-02-02T12:47:33.434Z,29.57
2019-02-02T12:50:02.047Z,31.20
2019-02-02T12:52:29.595Z,31.20
2019-02-02T12:54:57.535Z,30.63
2019-02-02T12:57:25.851Z,31.83
2019-02-02T12:59:53.411Z,28.83
2019-02-02T13:02:21.365Z,28.57
2019-02-02T13:04:48.807Z,26.77
2019-02-02T13:07:16.460Z,26.33
2019-02-02T13:09:44.234Z,27.80
2019-02-02T13:12:11.694Z,26.37
2019-02-02T13:14:39.151Z,26.87
2019-02-02T13:17:06.684Z,27.07
2019-02-02T13:19:34.636Z,27.77
2019-02-02T13:22:02.407Z,27.87
2019-02-02T13:24:30.282Z,26.90
2019-02-02T13:26:59.798Z,25.97
2019-02-02T13:29:28.653Z,24.97
2019-02-02T13:31:56.519Z,23.83
2019-02-02T13:34:24.391Z,25.60
2019-02-02T13:36:52.395Z,23.93
2019-02-02T13:39:20.363Z,25.30
2019-02-02T13:41:49.033Z,25.20
2019-02-02T13:45:13.915Z,24.40
2019-02-02T13:47:41.510Z,23.60
2019-02-02T13:50:12.511Z,23.00
2019-02-02T13:52:42.167Z,21.93
2019-02-02T13:55:09.808Z,24.50
2019-02-02T13:57:37.304Z,23.73
2019-02-02T14:00:07.387Z,23.77
2019-02-02T14:02:36.043Z,24.40
2019-02-02T14:05:05.409Z,22.97
2019-02-02T14:07:33.339Z,22.97
2019-02-02T14:10:21.344Z,21.93
2019-02-02T14:12:48.946Z,23.17
2019-02-02T14:15:17.065Z,23.53
2019-02-02T14:17:44.493Z,24.03
2019-02-02T14:20:12.300Z,23.73
2019-02-02T14:22:40.146Z,23.43
2019-02-02T14:25:08.898Z,23.40
2019-02-02T14:27:36.972Z,23.27
2019-02-02T14:30:08.774Z,23.27
2019-02-02T14:32:38.234Z,22.53
2019-02-02T14:35:06.407Z,23.43
2019-02-02T14:37:34.201Z,23.27
2019-02-02T14:40:02.007Z,25.00
2019-02-02T14:42:29.513Z,25.83
2019-02-02T14:44:57.494Z,22.67
2019-02-02T14:47:25.976Z,21.53
2019-02-02T14:49:53.461Z,23.70
2019-02-02T14:52:21.413Z,23.40
2019-02-02T14:54:48.904Z,23.40
2019-02-02T14:57:16.699Z,23.13
2019-02-02T14:59:44.623Z,24.50
2019-02-02T15:02:13.493Z,20.17
2019-02-02T15:04:41.687Z,20.23
2019-02-02T15:07:09.146Z,21.40
2019-02-02T15:09:37.732Z,20.27
2019-02-02T15:12:05.767Z,22.30
2019-02-02T15:14:33.249Z,21.10
2019-02-02T15:17:00.961Z,21.90
2019-02-02T15:19:29.241Z,22.50
2019-02-02T15:21:57.088Z,21.73
2019-02-02T15:24:24.551Z,22.03
2019-02-02T15:26:52.384Z,21.20
2019-02-02T15:29:20.520Z,22.50
2019-02-02T15:31:48.667Z,22.47
2019-02-02T15:34:16.804Z,23.60
2019-02-02T15:36:45.080Z,22.53
2019-02-02T15:39:12.593Z,22.80
2019-02-02T15:41:40.087Z,23.93
2019-02-02T15:44:08.559Z,24.33
2019-02-02T15:46:36.014Z,24.30
2019-02-02T15:49:04.292Z,23.17
2019-02-02T15:51:39.972Z,26.00
2019-02-02T15:54:01.629Z,24.73
2019-02-02T15:56:29.100Z,24.43
2019-02-02T15:58:56.928Z,23.93
2019-02-02T16:01:24.798Z,25.67
2019-02-02T16:04:00.038Z,24.60
2019-02-02T16:06:27.795Z,25.27
2019-02-02T16:08:55.300Z,26.07
2019-02-02T16:11:22.808Z,27.40
2019-02-02T16:13:50.286Z,25.37
2019-02-02T16:16:18.152Z,25.67
2019-02-02T16:18:45.611Z,25.97
2019-02-02T16:21:13.407Z,26.10
2019-02-02T16:23:41.215Z,25.77
2019-02-02T16:26:08.712Z,26.37
2019-02-02T16:28:36.548Z,24.10
2019-02-02T16:31:04.095Z,24.77
2019-02-02T16:33:31.532Z,25.20
2019-02-02T16:35:59.581Z,27.37
2019-02-02T16:38:27.693Z,26.70
2019-02-02T16:40:55.188Z,27.20
2019-02-02T16:43:23.494Z,24.53
2019-02-02T16:45:51.287Z,26.67
2019-02-02T16:48:18.791Z,25.83
2019-02-02T16:50:46.597Z,26.10
2019-02-02T16:53:15.143Z,26.77
2019-02-02T16:55:42.606Z,28.03
2019-02-02T16:58:10.110Z,26.53
2019-02-02T17:00:38.409Z,25.20
2019-02-02T17:03:06.091Z,25.57
2019-02-02T17:05:33.818Z,25.53
2019-02-02T17:08:01.628Z,26.60
2019-02-02T17:10:31.220Z,26.53
2019-02-02T17:12:59.497Z,27.80
2019-02-02T17:15:27.134Z,29.23
2019-02-02T17:17:55.049Z,29.37
2019-02-02T17:20:26.019Z,32.47
2019-02-02T17:22:53.870Z,29.97
2019-02-02T17:25:22.632Z,32.30
2019-02-02T17:27:50.962Z,32.97
2019-02-02T17:30:20.022Z,31.53
2019-02-02T17:32:48.551Z,32.40
2019-02-02T17:35:16.890Z,36.63
2019-02-02T17:37:48.745Z,34.67
2019-02-02T17:40:18.832Z,37.93
2019-02-02T17:42:46.970Z,35.17
2019-02-02T17:45:15.687Z,37.30
2019-02-02T17:47:43.179Z,38.00
2019-02-02T17:50:13.272Z,34.93
2019-02-02T17:52:40.869Z,36.60
2019-02-02T17:55:09.778Z,38.47
2019-02-02T17:57:38.574Z,38.23
2019-02-02T18:00:10.056Z,37.63
2019-02-02T18:02:37.936Z,40.03
2019-02-02T18:05:05.877Z,41.77
2019-02-02T18:07:33.979Z,40.10
2019-02-02T18:10:01.886Z,41.43
2019-02-02T18:12:29.322Z,40.47
2019-02-02T18:14:57.424Z,45.37
2019-02-02T18:17:25.600Z,46.13
2019-02-02T18:19:57.419Z,48.03
2019-02-02T18:22:25.004Z,46.07
2019-02-02T18:24:52.572Z,45.90
2019-02-02T18:27:22.613Z,51.53
2019-02-02T18:29:50.110Z,46.27
2019-02-02T18:32:17.949Z,46.60
2019-02-02T18:34:51.217Z,47.83
2019-02-02T18:37:14.962Z,46.57
2019-02-02T18:39:46.209Z,50.17
2019-02-02T18:42:18.335Z,48.90
2019-02-02T18:44:49.143Z,54.57
2019-02-02T18:47:16.786Z,57.27
2019-02-02T18:49:45.137Z,55.00
2019-02-02T18:52:12.797Z,50.20
2019-02-02T18:54:40.409Z,46.63
2019-02-02T18:57:09.147Z,46.57
2019-02-02T18:59:37.105Z,50.20
2019-02-02T19:02:05.623Z,46.27
2019-02-02T19:04:33.317Z,45.27
2019-02-02T19:07:07.001Z,46.43
2019-02-02T19:09:35.848Z,46.07
2019-02-02T19:12:04.280Z,45.33
2019-02-02T19:14:33.392Z,45.90
2019-02-02T19:17:05.035Z,46.27
2019-02-02T19:19:40.010Z,45.20
2019-02-02T19:22:08.094Z,45.60
2019-02-02T19:24:36.200Z,44.20
2019-02-02T19:27:05.129Z,46.60
2019-02-02T19:29:34.090Z,44.70
2019-02-02T19:32:05.105Z,43.90
2019-02-02T19:34:33.007Z,45.70
2019-02-02T19:37:03.347Z,40.63
2019-02-02T19:39:35.393Z,42.67
2019-02-02T19:42:09.750Z,42.17
2019-02-02T19:44:39.454Z,43.37
2019-02-02T19:47:15.861Z,42.50
2019-02-02T19:49:39.710Z,40.73
2019-02-02T19:52:09.347Z,38.60
2019-02-02T19:54:43.147Z,39.90
2019-02-02T19:57:11.345Z,41.60
2019-02-02T19:59:41.380Z,41.90
2019-02-02T20:02:13.337Z,39.20
2019-02-02T20:04:48.786Z,35.80
2019-02-02T20:07:18.511Z,33.67
2019-02-02T20:09:47.215Z,30.30
2019-02-02T20:12:15.878Z,31.17
2019-02-02T20:14:44.170Z,30.30
2019-02-02T20:17:14.643Z,30.50
2019-02-02T20:19:43.315Z,29.93
2019-02-02T20:22:12.124Z,32.30
2019-02-02T20:24:40.520Z,31.43
2019-02-02T20:27:09.224Z,31.03
2019-02-02T20:29:41.627Z,31.13
2019-02-02T20:32:11.986Z,30.87
2019-02-02T20:34:40.129Z,27.10
2019-02-02T20:37:08.772Z,27.30
2019-02-02T20:39:39.326Z,26.07
2019-02-02T20:42:07.876Z,26.13
2019-02-02T20:44:36.985Z,30.03
2019-02-02T20:47:05.084Z,30.17
2019-02-02T20:49:33.319Z,29.77
2019-02-02T20:52:01.654Z,30.37
2019-02-02T20:54:29.642Z,32.47
2019-02-02T20:56:57.312Z,32.40
2019-02-02T20:59:24.968Z,36.10
2019-02-02T21:01:52.992Z,34.27
2019-02-02T21:04:21.203Z,38.57
2019-02-02T21:06:50.491Z,36.13
2019-02-02T21:09:18.746Z,34.70
2019-02-02T21:11:56.624Z,33.87
2019-02-02T21:14:21.861Z,35.13
2019-02-02T21:16:51.484Z,35.93
2019-02-02T21:19:20.878Z,35.80
2019-02-02T21:21:49.190Z,35.23
2019-02-02T21:24:17.022Z,35.73
2019-02-02T21:26:45.190Z,31.30
2019-02-02T21:29:14.722Z,30.70
2019-02-02T21:31:42.677Z,29.93
2019-02-02T21:34:14.035Z,29.03
2019-02-02T21:36:42.924Z,28.33
2019-02-02T21:39:11.192Z,28.53
2019-02-02T21:41:40.326Z,28.13
2019-02-02T21:44:07.963Z,27.03
2019-02-02T21:46:36.801Z,26.77
2019-02-02T21:49:07.061Z,26.43
2019-02-02T21:51:38.064Z,25.53
2019-02-02T21:54:06.048Z,27.10
2019-02-02T21:56:33.850Z,25.17
2019-02-02T21:59:06.435Z,26.53
2019-02-02T22:01:34.452Z,27.03
2019-02-02T22:04:03.717Z,25.30
2019-02-02T22:06:31.595Z,27.30
2019-02-02T22:08:59.559Z,29.07
2019-02-02T22:11:27.086Z,28.70
2019-02-02T22:13:55.069Z,27.83
2019-02-02T22:16:22.842Z,27.73
2019-02-02T22:18:51.156Z,29.17
2019-02-02T22:21:19.320Z,29.27
2019-02-02T22:23:47.507Z,29.60
2019-02-02T22:26:15.240Z,28.60
2019-02-02T22:28:45.021Z,27.23
2019-02-02T22:31:12.896Z,26.97
2019-02-02T22:33:40.417Z,26.63
2019-02-02T22:36:08.282Z,27.10
2019-02-02T22:38:36.678Z,25.70
2019-02-02T22:41:06.964Z,27.23
2019-02-02T22:43:34.005Z,24.73
2019-02-02T22:46:01.856Z,26.60
2019-02-02T22:48:30.740Z,24.47
2019-02-02T22:50:58.397Z,25.03
2019-02-02T22:53:26.938Z,22.97
2019-02-02T22:55:54.671Z,22.83
2019-02-02T22:58:22.619Z,23.37
2019-02-02T23:01:03.062Z,23.47
2019-02-02T23:03:45.627Z,23.73
2019-02-02T23:06:39.620Z,24.43
2019-02-02T23:10:00.344Z,24.57
2019-02-02T23:13:02.168Z,25.37
2019-02-02T23:16:26.489Z,25.20
2019-02-02T23:18:54.332Z,25.30
2019-02-02T23:21:22.682Z,24.93
2019-02-02T23:23:50.854Z,25.37
2019-02-02T23:26:18.760Z,26.53
2019-02-02T23:28:46.627Z,30.17
2019-02-02T23:31:14.613Z,29.63
2019-02-02T23:33:42.382Z,28.03
2019-02-02T23:36:12.144Z,28.90
2019-02-02T23:38:39.941Z,30.30
2019-02-02T23:41:07.547Z,30.53
2019-02-02T23:43:35.442Z,31.77
2019-02-02T23:46:03.140Z,33.33
2019-02-02T23:48:34.834Z,31.40
2019-02-02T23:51:02.604Z,32.50
2019-02-02T23:53:30.076Z,34.80
2019-02-02T23:55:57.606Z,33.67
2019-02-02T23:58:25.162Z,35.67
